Terminal Aerodrome Forecast
Issued by NWS

Home | Current Version | Previous Version | Text Only | Print | Product List | Glossary On
Versions: 1 2 3 4 5 6 7 8 9 10 11 12 13 14 15 16
000
FTUS43 KSGF 141100 AAA
TAFJLN
TAF AMD
KJLN 141100Z 1411/1506 35006KT P6SM BKN100
     FM141200 35006KT P6SM BKN040 OVC100
     FM150200 00000KT P6SM BKN080=

USA.gov is the U.S. government's official web portal to all federal, state and local government web resources and services.